sensor_id;sensor_type;location;lat;lon;timestamp;noise_LAeq;noise_LA_min;noise_LA_max;noise_LA01;noise_LA95
66456;Laerm;56833;52.254;5.598;2023-01-28T00:00:07;46.90;45.88;48.02;;
66456;Laerm;56833;52.254;5.598;2023-01-28T00:00:18;46.89;45.87;48.08;;
66456;Laerm;56833;52.254;5.598;2023-01-28T00:00:29;46.89;45.78;47.95;;
66456;Laerm;56833;52.254;5.598;2023-01-28T00:00:39;46.91;45.95;47.95;;
66456;Laerm;56833;52.254;5.598;2023-01-28T00:00:49;46.86;45.63;47.85;;
66456;Laerm;56833;52.254;5.598;2023-01-28T00:01:03;46.89;45.77;48.11;;
66456;Laerm;56833;52.254;5.598;2023-01-28T00:01:14;46.87;45.91;48.34;;
66456;Laerm;56833;52.254;5.598;2023-01-28T00:01:25;46.87;45.60;47.81;;
66456;Laerm;56833;52.254;5.598;2023-01-28T00:01:35;46.91;45.79;47.92;;
66456;Laerm;56833;52.254;5.598;2023-01-28T00:01:45;46.83;45.91;48.42;;
66456;Laerm;56833;52.254;5.598;2023-01-28T00:01:56;46.83;45.94;47.74;;
66456;Laerm;56833;52.254;5.598;2023-01-28T00:02:06;46.87;45.85;47.73;;
66456;Laerm;56833;52.254;5.598;2023-01-28T00:02:16;46.83;45.63;47.75;;
66456;Laerm;56833;52.254;5.598;2023-01-28T00:02:26;46.85;45.91;47.69;;
66456;Laerm;56833;52.254;5.598;2023-01-28T00:02:37;46.80;45.79;47.66;;
66456;Laerm;56833;52.254;5.598;2023-01-28T00:02:47;46.73;45.72;47.89;;
66456;Laerm;56833;52.254;5.598;2023-01-28T00:02:58;46.82;45.86;47.90;;
66456;Laerm;56833;52.254;5.598;2023-01-28T00:03:09;46.81;45.85;47.68;;
66456;Laerm;56833;52.254;5.598;2023-01-28T00:03:19;46.80;45.66;47.96;;
66456;Laerm;56833;52.254;5.598;2023-01-28T00:03:29;46.81;45.52;47.73;;
66456;Laerm;56833;52.254;5.598;2023-01-28T00:03:40;46.76;45.65;47.86;;
66456;Laerm;56833;52.254;5.598;2023-01-28T00:03:50;46.83;45.86;47.95;;
66456;Laerm;56833;52.254;5.598;2023-01-28T00:04:01;46.80;45.84;47.82;;
66456;Laerm;56833;52.254;5.598;2023-01-28T00:04:11;46.78;45.47;47.65;;
66456;Laerm;56833;52.254;5.598;2023-01-28T00:04:21;46.82;45.98;47.73;;
66456;Laerm;56833;52.254;5.598;2023-01-28T00:04:32;46.76;45.83;47.92;;
66456;Laerm;56833;52.254;5.598;2023-01-28T00:04:42;46.78;45.80;47.86;;
66456;Laerm;56833;52.254;5.598;2023-01-28T00:04:53;46.80;45.62;47.93;;
66456;Laerm;56833;52.254;5.598;2023-01-28T00:05:03;46.77;45.85;47.82;;
66456;Laerm;56833;52.254;5.598;2023-01-28T00:05:14;46.81;45.87;47.74;;
66456;Laerm;56833;52.254;5.598;2023-01-28T00:05:24;46.82;45.91;47.77;;
66456;Laerm;56833;52.254;5.598;2023-01-28T00:05:34;46.78;45.79;47.88;;
66456;Laerm;56833;52.254;5.598;2023-01-28T00:05:45;46.81;45.94;47.84;;
66456;Laerm;56833;52.254;5.598;2023-01-28T00:06:00;46.73;45.87;47.61;;
66456;Laerm;56833;52.254;5.598;2023-01-28T00:06:11;46.77;45.58;47.90;;
66456;Laerm;56833;52.254;5.598;2023-01-28T00:06:22;46.75;45.76;47.91;;
66456;Laerm;56833;52.254;5.598;2023-01-28T00:06:33;46.73;45.54;47.71;;
66456;Laerm;56833;52.254;5.598;2023-01-28T00:06:43;46.74;45.67;47.79;;
66456;Laerm;56833;52.254;5.598;2023-01-28T00:06:53;46.74;45.74;47.80;;
66456;Laerm;56833;52.254;5.598;2023-01-28T00:07:04;46.71;45.25;47.60;;
66456;Laerm;56833;52.254;5.598;2023-01-28T00:07:14;46.72;45.67;47.80;;
66456;Laerm;56833;52.254;5.598;2023-01-28T00:07:24;46.72;45.73;47.64;;
66456;Laerm;56833;52.254;5.598;2023-01-28T00:07:34;46.79;45.75;47.64;;
66456;Laerm;56833;52.254;5.598;2023-01-28T00:07:47;46.75;45.55;47.88;;
66456;Laerm;56833;52.254;5.598;2023-01-28T00:07:57;46.76;45.56;47.78;;
66456;Laerm;56833;52.254;5.598;2023-01-28T00:08:08;46.71;45.36;47.73;;
66456;Laerm;56833;52.254;5.598;2023-01-28T00:08:19;46.74;45.68;47.65;;
66456;Laerm;56833;52.254;5.598;2023-01-28T00:08:29;46.72;45.40;47.68;;
66456;Laerm;56833;52.254;5.598;2023-01-28T00:08:40;46.75;45.93;47.63;;
66456;Laerm;56833;52.254;5.598;2023-01-28T00:08:51;46.71;45.52;47.57;;
66456;Laerm;56833;52.254;5.598;2023-01-28T00:09:01;46.70;45.82;47.74;;
66456;Laerm;56833;52.254;5.598;2023-01-28T00:09:11;46.70;45.59;47.73;;
66456;Laerm;56833;52.254;5.598;2023-01-28T00:09:22;46.69;45.63;47.62;;
66456;Laerm;56833;52.254;5.598;2023-01-28T00:09:32;46.62;45.70;47.79;;
66456;Laerm;56833;52.254;5.598;2023-01-28T00:09:42;46.64;45.55;47.53;;
66456;Laerm;56833;52.254;5.598;2023-01-28T00:09:52;46.62;45.45;48.02;;
66456;Laerm;56833;52.254;5.598;2023-01-28T00:10:03;46.64;45.67;47.66;;
66456;Laerm;56833;52.254;5.598;2023-01-28T00:10:13;46.58;45.65;47.77;;
66456;Laerm;56833;52.254;5.598;2023-01-28T00:10:24;46.62;45.49;47.79;;
66456;Laerm;56833;52.254;5.598;2023-01-28T00:10:35;46.61;45.07;47.64;;
66456;Laerm;56833;52.254;5.598;2023-01-28T00:10:46;46.61;45.56;47.44;;
66456;Laerm;56833;52.254;5.598;2023-01-28T00:10:59;46.65;45.78;47.61;;
66456;Laerm;56833;52.254;5.598;2023-01-28T00:11:10;46.63;45.45;47.76;;
66456;Laerm;56833;52.254;5.598;2023-01-28T00:11:21;46.61;45.68;47.51;;
66456;Laerm;56833;52.254;5.598;2023-01-28T00:11:31;46.61;45.69;47.64;;
66456;Laerm;56833;52.254;5.598;2023-01-28T00:11:42;46.61;45.77;47.67;;
66456;Laerm;56833;52.254;5.598;2023-01-28T00:11:52;46.58;45.64;47.49;;
66456;Laerm;56833;52.254;5.598;2023-01-28T00:12:03;46.58;45.50;47.39;;
66456;Laerm;56833;52.254;5.598;2023-01-28T00:12:13;46.59;45.55;47.82;;
66456;Laerm;56833;52.254;5.598;2023-01-28T00:12:23;46.56;45.42;47.46;;
66456;Laerm;56833;52.254;5.598;2023-01-28T00:12:34;46.55;45.58;47.44;;
66456;Laerm;56833;52.254;5.598;2023-01-28T00:12:44;46.57;45.65;47.59;;
66456;Laerm;56833;52.254;5.598;2023-01-28T00:12:55;46.56;45.49;47.47;;
66456;Laerm;56833;52.254;5.598;2023-01-28T00:13:05;46.57;45.71;47.70;;
66456;Laerm;56833;52.254;5.598;2023-01-28T00:13:16;46.52;45.50;47.45;;
66456;Laerm;56833;52.254;5.598;2023-01-28T00:13:26;46.54;45.48;47.73;;
66456;Laerm;56833;52.254;5.598;2023-01-28T00:13:37;46.54;45.68;47.58;;
66456;Laerm;56833;52.254;5.598;2023-01-28T00:13:51;46.52;45.60;47.39;;
66456;Laerm;56833;52.254;5.598;2023-01-28T00:14:01;46.59;45.64;47.50;;
66456;Laerm;56833;52.254;5.598;2023-01-28T00:14:13;46.56;45.64;47.58;;
66456;Laerm;56833;52.254;5.598;2023-01-28T00:14:24;46.56;45.40;47.80;;
66456;Laerm;56833;52.254;5.598;2023-01-28T00:14:34;46.60;45.51;47.72;;
66456;Laerm;56833;52.254;5.598;2023-01-28T00:14:44;46.60;45.51;47.66;;
66456;Laerm;56833;52.254;5.598;2023-01-28T00:14:57;46.58;45.30;47.75;;
66456;Laerm;56833;52.254;5.598;2023-01-28T00:15:08;46.58;45.68;47.58;;
66456;Laerm;56833;52.254;5.598;2023-01-28T00:15:19;46.56;45.27;47.50;;
66456;Laerm;56833;52.254;5.598;2023-01-28T00:15:30;46.58;45.61;47.69;;
66456;Laerm;56833;52.254;5.598;2023-01-28T00:15:40;46.57;45.58;47.80;;
66456;Laerm;56833;52.254;5.598;2023-01-28T00:15:54;46.60;45.56;47.58;;
66456;Laerm;56833;52.254;5.598;2023-01-28T00:16:05;46.59;45.47;47.66;;
66456;Laerm;56833;52.254;5.598;2023-01-28T00:16:19;46.58;45.65;47.58;;
66456;Laerm;56833;52.254;5.598;2023-01-28T00:16:31;46.58;45.63;47.50;;
66456;Laerm;56833;52.254;5.598;2023-01-28T00:16:42;46.63;45.75;47.56;;
66456;Laerm;56833;52.254;5.598;2023-01-28T00:16:52;46.61;45.83;47.51;;
66456;Laerm;56833;52.254;5.598;2023-01-28T00:17:03;46.60;45.72;47.56;;
66456;Laerm;56833;52.254;5.598;2023-01-28T00:17:14;46.60;45.67;47.54;;
66456;Laerm;56833;52.254;5.598;2023-01-28T00:17:24;46.62;45.69;47.61;;
66456;Laerm;56833;52.254;5.598;2023-01-28T00:17:35;46.63;45.65;47.48;;
66456;Laerm;56833;52.254;5.598;2023-01-28T00:17:48;46.61;45.55;47.75;;
66456;Laerm;56833;52.254;5.598;2023-01-28T00:17:58;46.63;45.72;47.72;;
66456;Laerm;56833;52.254;5.598;2023-01-28T00:18:09;46.62;45.27;47.75;;
66456;Laerm;56833;52.254;5.598;2023-01-28T00:18:19;46.64;45.59;47.70;;
66456;Laerm;56833;52.254;5.598;2023-01-28T00:18:30;46.69;45.62;47.60;;
66456;Laerm;56833;52.254;5.598;2023-01-28T00:18:41;46.66;45.62;47.59;;
66456;Laerm;56833;52.254;5.598;2023-01-28T00:18:51;46.66;45.81;47.75;;
66456;Laerm;56833;52.254;5.598;2023-01-28T00:19:02;46.68;45.72;47.63;;
66456;Laerm;56833;52.254;5.598;2023-01-28T00:19:12;46.68;45.81;47.82;;
66456;Laerm;56833;52.254;5.598;2023-01-28T00:19:22;46.65;45.71;47.65;;
66456;Laerm;56833;52.254;5.598;2023-01-28T00:19:33;46.68;45.20;47.73;;
66456;Laerm;56833;52.254;5.598;2023-01-28T00:19:43;46.71;45.75;47.79;;
66456;Laerm;56833;52.254;5.598;2023-01-28T00:19:54;46.64;45.83;47.66;;
66456;Laerm;56833;52.254;5.598;2023-01-28T00:20:04;46.68;45.70;47.61;;
66456;Laerm;56833;52.254;5.598;2023-01-28T00:20:15;46.66;45.64;47.69;;
66456;Laerm;56833;52.254;5.598;2023-01-28T00:20:25;46.67;45.49;47.55;;
66456;Laerm;56833;52.254;5.598;2023-01-28T00:20:36;46.68;45.38;47.59;;
66456;Laerm;56833;52.254;5.598;2023-01-28T00:20:54;46.68;45.62;47.61;;
66456;Laerm;56833;52.254;5.598;2023-01-28T00:21:06;46.68;45.62;47.63;;
66456;Laerm;56833;52.254;5.598;2023-01-28T00:21:16;46.66;45.72;47.50;;
66456;Laerm;56833;52.254;5.598;2023-01-28T00:21:26;46.72;45.73;47.71;;
66456;Laerm;56833;52.254;5.598;2023-01-28T00:21:37;46.73;45.61;47.81;;
66456;Laerm;56833;52.254;5.598;2023-01-28T00:21:47;46.68;45.69;47.60;;
66456;Laerm;56833;52.254;5.598;2023-01-28T00:21:57;46.68;45.53;47.48;;
66456;Laerm;56833;52.254;5.598;2023-01-28T00:22:08;46.66;45.61;47.65;;
66456;Laerm;56833;52.254;5.598;2023-01-28T00:22:18;46.72;45.89;47.55;;
66456;Laerm;56833;52.254;5.598;2023-01-28T00:22:28;46.71;45.76;47.51;;
66456;Laerm;56833;52.254;5.598;2023-01-28T00:22:38;46.74;45.75;47.81;;
66456;Laerm;56833;52.254;5.598;2023-01-28T00:22:49;46.70;45.71;47.65;;
66456;Laerm;56833;52.254;5.598;2023-01-28T00:22:59;46.76;45.55;48.04;;
66456;Laerm;56833;52.254;5.598;2023-01-28T00:23:09;46.77;45.70;47.72;;
66456;Laerm;56833;52.254;5.598;2023-01-28T00:23:20;46.74;45.53;47.66;;
66456;Laerm;56833;52.254;5.598;2023-01-28T00:23:31;46.72;45.53;47.74;;
66456;Laerm;56833;52.254;5.598;2023-01-28T00:23:42;46.72;45.52;47.64;;
66456;Laerm;56833;52.254;5.598;2023-01-28T00:23:56;46.70;45.59;47.62;;
66456;Laerm;56833;52.254;5.598;2023-01-28T00:24:06;46.75;45.51;47.70;;
66456;Laerm;56833;52.254;5.598;2023-01-28T00:24:18;46.71;45.88;48.11;;
66456;Laerm;56833;52.254;5.598;2023-01-28T00:24:28;46.74;45.70;47.94;;
66456;Laerm;56833;52.254;5.598;2023-01-28T00:24:39;46.77;45.73;47.78;;
66456;Laerm;56833;52.254;5.598;2023-01-28T00:24:49;46.74;45.71;47.67;;
66456;Laerm;56833;52.254;5.598;2023-01-28T00:25:00;46.73;45.86;47.77;;
66456;Laerm;56833;52.254;5.598;2023-01-28T00:25:10;46.74;45.59;47.94;;
66456;Laerm;56833;52.254;5.598;2023-01-28T00:25:20;46.72;45.80;47.61;;
66456;Laerm;56833;52.254;5.598;2023-01-28T00:25:30;46.72;45.71;48.02;;
66456;Laerm;56833;52.254;5.598;2023-01-28T00:25:41;46.74;45.80;47.64;;
66456;Laerm;56833;52.254;5.598;2023-01-28T00:25:51;46.81;45.86;47.83;;
66456;Laerm;56833;52.254;5.598;2023-01-28T00:26:02;46.80;45.81;47.92;;
66456;Laerm;56833;52.254;5.598;2023-01-28T00:26:14;46.80;45.67;47.86;;
66456;Laerm;56833;52.254;5.598;2023-01-28T00:26:24;46.79;45.86;47.81;;
66456;Laerm;56833;52.254;5.598;2023-01-28T00:26:34;46.82;45.78;47.67;;
66456;Laerm;56833;52.254;5.598;2023-01-28T00:26:45;46.79;45.60;47.69;;
66456;Laerm;56833;52.254;5.598;2023-01-28T00:26:55;46.77;45.83;47.83;;
66456;Laerm;56833;52.254;5.598;2023-01-28T00:27:05;46.77;45.59;47.65;;
66456;Laerm;56833;52.254;5.598;2023-01-28T00:27:16;46.79;45.84;47.75;;
66456;Laerm;56833;52.254;5.598;2023-01-28T00:27:26;46.77;45.93;47.65;;
66456;Laerm;56833;52.254;5.598;2023-01-28T00:27:36;46.84;45.60;47.91;;
66456;Laerm;56833;52.254;5.598;2023-01-28T00:27:47;46.76;45.79;47.64;;
66456;Laerm;56833;52.254;5.598;2023-01-28T00:27:57;46.79;45.83;47.90;;
66456;Laerm;56833;52.254;5.598;2023-01-28T00:28:07;46.82;45.97;47.85;;
66456;Laerm;56833;52.254;5.598;2023-01-28T00:28:18;46.79;45.79;47.75;;
66456;Laerm;56833;52.254;5.598;2023-01-28T00:28:28;46.79;45.70;47.94;;
66456;Laerm;56833;52.254;5.598;2023-01-28T00:28:38;46.80;45.71;47.64;;
66456;Laerm;56833;52.254;5.598;2023-01-28T00:28:49;46.83;45.62;47.93;;
66456;Laerm;56833;52.254;5.598;2023-01-28T00:28:59;46.81;45.93;47.83;;
66456;Laerm;56833;52.254;5.598;2023-01-28T00:29:09;46.81;45.51;47.85;;
66456;Laerm;56833;52.254;5.598;2023-01-28T00:29:20;46.81;45.70;47.96;;
66456;Laerm;56833;52.254;5.598;2023-01-28T00:29:30;46.74;45.57;47.67;;
66456;Laerm;56833;52.254;5.598;2023-01-28T00:29:40;46.79;45.70;47.82;;
66456;Laerm;56833;52.254;5.598;2023-01-28T00:29:51;46.78;45.47;47.84;;
66456;Laerm;56833;52.254;5.598;2023-01-28T00:30:03;46.83;45.94;47.71;;
66456;Laerm;56833;52.254;5.598;2023-01-28T00:30:13;46.80;45.71;47.90;;
66456;Laerm;56833;52.254;5.598;2023-01-28T00:30:23;46.83;45.95;47.79;;
66456;Laerm;56833;52.254;5.598;2023-01-28T00:30:34;46.81;45.62;47.74;;
66456;Laerm;56833;52.254;5.598;2023-01-28T00:30:46;46.78;45.76;47.75;;
66456;Laerm;56833;52.254;5.598;2023-01-28T00:30:56;46.79;45.71;47.75;;
66456;Laerm;56833;52.254;5.598;2023-01-28T00:31:07;46.76;45.82;47.86;;
66456;Laerm;56833;52.254;5.598;2023-01-28T00:31:20;46.75;45.44;47.73;;
66456;Laerm;56833;52.254;5.598;2023-01-28T00:31:30;46.75;45.75;47.81;;
66456;Laerm;56833;52.254;5.598;2023-01-28T00:31:41;46.82;45.53;47.69;;
66456;Laerm;56833;52.254;5.598;2023-01-28T00:31:51;46.80;45.65;47.94;;
66456;Laerm;56833;52.254;5.598;2023-01-28T00:32:01;46.80;45.66;47.88;;
66456;Laerm;56833;52.254;5.598;2023-01-28T00:32:12;46.85;45.92;48.12;;
66456;Laerm;56833;52.254;5.598;2023-01-28T00:32:22;46.85;45.78;47.78;;
66456;Laerm;56833;52.254;5.598;2023-01-28T00:32:32;46.84;45.53;47.91;;
66456;Laerm;56833;52.254;5.598;2023-01-28T00:32:42;46.85;45.84;47.82;;
66456;Laerm;56833;52.254;5.598;2023-01-28T00:32:53;46.86;45.88;48.00;;
66456;Laerm;56833;52.254;5.598;2023-01-28T00:33:04;46.83;45.57;47.96;;
66456;Laerm;56833;52.254;5.598;2023-01-28T00:33:14;46.83;45.64;47.89;;
66456;Laerm;56833;52.254;5.598;2023-01-28T00:33:24;46.84;45.68;47.65;;
66456;Laerm;56833;52.254;5.598;2023-01-28T00:33:35;46.87;45.43;47.84;;
66456;Laerm;56833;52.254;5.598;2023-01-28T00:33:46;46.89;45.70;47.86;;
66456;Laerm;56833;52.254;5.598;2023-01-28T00:33:57;46.83;45.91;47.84;;
66456;Laerm;56833;52.254;5.598;2023-01-28T00:34:07;46.85;45.93;47.76;;
66456;Laerm;56833;52.254;5.598;2023-01-28T00:34:18;46.86;45.74;48.05;;
66456;Laerm;56833;52.254;5.598;2023-01-28T00:34:28;46.79;45.78;47.85;;
66456;Laerm;56833;52.254;5.598;2023-01-28T00:34:39;46.78;45.86;47.89;;
66456;Laerm;56833;52.254;5.598;2023-01-28T00:34:49;46.80;45.82;47.97;;
66456;Laerm;56833;52.254;5.598;2023-01-28T00:34:59;46.77;45.60;47.79;;
66456;Laerm;56833;52.254;5.598;2023-01-28T00:35:09;46.77;45.82;48.01;;
66456;Laerm;56833;52.254;5.598;2023-01-28T00:35:20;46.79;45.84;47.78;;
66456;Laerm;56833;52.254;5.598;2023-01-28T00:35:30;46.79;45.68;47.86;;
66456;Laerm;56833;52.254;5.598;2023-01-28T00:35:41;46.74;45.87;47.90;;
66456;Laerm;56833;52.254;5.598;2023-01-28T00:35:58;46.76;45.84;47.77;;
66456;Laerm;56833;52.254;5.598;2023-01-28T00:36:09;46.74;45.66;47.90;;
66456;Laerm;56833;52.254;5.598;2023-01-28T00:36:20;46.76;45.97;48.06;;
66456;Laerm;56833;52.254;5.598;2023-01-28T00:36:31;46.72;45.62;47.67;;
66456;Laerm;56833;52.254;5.598;2023-01-28T00:36:42;46.75;45.90;48.19;;
66456;Laerm;56833;52.254;5.598;2023-01-28T00:36:54;46.77;45.62;47.75;;
66456;Laerm;56833;52.254;5.598;2023-01-28T00:37:07;46.79;45.75;47.72;;
66456;Laerm;56833;52.254;5.598;2023-01-28T00:37:18;46.73;45.63;47.87;;
66456;Laerm;56833;52.254;5.598;2023-01-28T00:37:28;46.75;45.85;47.80;;
66456;Laerm;56833;52.254;5.598;2023-01-28T00:37:38;46.72;45.81;47.63;;
66456;Laerm;56833;52.254;5.598;2023-01-28T00:37:48;46.74;45.70;47.71;;
66456;Laerm;56833;52.254;5.598;2023-01-28T00:37:59;46.72;45.59;47.74;;
66456;Laerm;56833;52.254;5.598;2023-01-28T00:38:09;46.72;45.71;47.81;;
66456;Laerm;56833;52.254;5.598;2023-01-28T00:38:19;46.75;45.73;47.89;;
66456;Laerm;56833;52.254;5.598;2023-01-28T00:38:32;46.74;45.91;47.70;;
66456;Laerm;56833;52.254;5.598;2023-01-28T00:38:47;46.73;45.78;47.77;;
66456;Laerm;56833;52.254;5.598;2023-01-28T00:38:58;46.72;45.50;47.69;;
66456;Laerm;56833;52.254;5.598;2023-01-28T00:39:10;46.73;45.75;47.64;;
66456;Laerm;56833;52.254;5.598;2023-01-28T00:39:25;46.72;45.63;47.61;;
66456;Laerm;56833;52.254;5.598;2023-01-28T00:39:36;46.75;45.77;47.73;;
66456;Laerm;56833;52.254;5.598;2023-01-28T00:39:46;46.82;45.81;47.75;;
66456;Laerm;56833;52.254;5.598;2023-01-28T00:39:56;46.75;45.82;47.83;;
66456;Laerm;56833;52.254;5.598;2023-01-28T00:40:07;46.76;45.77;47.68;;
66456;Laerm;56833;52.254;5.598;2023-01-28T00:40:19;46.77;45.79;47.83;;
66456;Laerm;56833;52.254;5.598;2023-01-28T00:40:29;46.77;45.80;47.89;;
66456;Laerm;56833;52.254;5.598;2023-01-28T00:40:39;46.75;45.67;47.69;;
66456;Laerm;56833;52.254;5.598;2023-01-28T00:40:50;46.73;45.74;47.73;;
66456;Laerm;56833;52.254;5.598;2023-01-28T00:41:13;46.75;45.98;47.73;;
66456;Laerm;56833;52.254;5.598;2023-01-28T00:41:24;46.72;45.35;47.73;;
66456;Laerm;56833;52.254;5.598;2023-01-28T00:41:35;46.76;45.88;47.97;;
66456;Laerm;56833;52.254;5.598;2023-01-28T00:41:46;46.74;45.46;48.17;;
66456;Laerm;56833;52.254;5.598;2023-01-28T00:41:56;46.77;45.85;47.66;;
66456;Laerm;56833;52.254;5.598;2023-01-28T00:42:06;46.75;45.90;47.89;;
66456;Laerm;56833;52.254;5.598;2023-01-28T00:42:17;46.75;45.80;47.80;;
66456;Laerm;56833;52.254;5.598;2023-01-28T00:42:27;46.74;45.27;47.76;;
66456;Laerm;56833;52.254;5.598;2023-01-28T00:42:37;46.76;45.66;47.64;;
66456;Laerm;56833;52.254;5.598;2023-01-28T00:42:47;46.75;45.66;47.96;;
66456;Laerm;56833;52.254;5.598;2023-01-28T00:42:58;46.77;45.68;47.58;;
66456;Laerm;56833;52.254;5.598;2023-01-28T00:43:08;46.76;45.57;47.73;;
66456;Laerm;56833;52.254;5.598;2023-01-28T00:43:18;46.72;45.88;47.74;;
66456;Laerm;56833;52.254;5.598;2023-01-28T00:43:29;46.77;45.73;47.51;;
66456;Laerm;56833;52.254;5.598;2023-01-28T00:43:39;46.79;45.73;47.98;;
66456;Laerm;56833;52.254;5.598;2023-01-28T00:43:50;46.76;45.89;47.84;;
66456;Laerm;56833;52.254;5.598;2023-01-28T00:44:00;46.74;45.88;47.75;;
66456;Laerm;56833;52.254;5.598;2023-01-28T00:44:11;46.75;45.59;47.87;;
66456;Laerm;56833;52.254;5.598;2023-01-28T00:44:21;46.67;45.76;47.62;;
66456;Laerm;56833;52.254;5.598;2023-01-28T00:44:31;46.72;45.65;47.67;;
66456;Laerm;56833;52.254;5.598;2023-01-28T00:44:42;46.68;45.71;47.83;;
66456;Laerm;56833;52.254;5.598;2023-01-28T00:44:52;46.67;45.64;47.60;;
66456;Laerm;56833;52.254;5.598;2023-01-28T00:45:02;46.71;45.63;47.66;;
66456;Laerm;56833;52.254;5.598;2023-01-28T00:45:13;46.69;45.37;47.70;;
66456;Laerm;56833;52.254;5.598;2023-01-28T00:45:23;46.74;45.81;47.62;;
66456;Laerm;56833;52.254;5.598;2023-01-28T00:45:33;46.71;45.71;47.74;;
66456;Laerm;56833;52.254;5.598;2023-01-28T00:45:43;46.69;45.61;47.62;;
66456;Laerm;56833;52.254;5.598;2023-01-28T00:45:54;46.71;45.55;47.72;;
66456;Laerm;56833;52.254;5.598;2023-01-28T00:46:05;46.71;45.66;47.78;;
66456;Laerm;56833;52.254;5.598;2023-01-28T00:46:16;46.72;45.58;47.84;;
66456;Laerm;56833;52.254;5.598;2023-01-28T00:46:26;46.70;45.55;47.71;;
66456;Laerm;56833;52.254;5.598;2023-01-28T00:46:37;46.70;45.37;47.63;;
66456;Laerm;56833;52.254;5.598;2023-01-28T00:46:48;46.70;45.57;47.70;;
66456;Laerm;56833;52.254;5.598;2023-01-28T00:46:58;46.72;45.76;47.46;;
66456;Laerm;56833;52.254;5.598;2023-01-28T00:47:09;46.75;45.55;47.62;;
66456;Laerm;56833;52.254;5.598;2023-01-28T00:47:20;46.72;45.12;47.78;;
66456;Laerm;56833;52.254;5.598;2023-01-28T00:47:31;46.72;45.57;47.87;;
66456;Laerm;56833;52.254;5.598;2023-01-28T00:47:41;46.73;45.74;47.66;;
66456;Laerm;56833;52.254;5.598;2023-01-28T00:47:51;46.71;45.65;47.81;;
66456;Laerm;56833;52.254;5.598;2023-01-28T00:48:02;46.71;45.63;47.67;;
66456;Laerm;56833;52.254;5.598;2023-01-28T00:48:12;46.72;45.74;47.53;;
66456;Laerm;56833;52.254;5.598;2023-01-28T00:48:22;46.71;45.77;47.70;;
66456;Laerm;56833;52.254;5.598;2023-01-28T00:48:33;46.67;45.55;47.64;;
66456;Laerm;56833;52.254;5.598;2023-01-28T00:48:44;46.70;45.50;47.57;;
66456;Laerm;56833;52.254;5.598;2023-01-28T00:48:54;46.72;45.61;47.81;;
66456;Laerm;56833;52.254;5.598;2023-01-28T00:49:05;46.67;45.66;47.81;;
66456;Laerm;56833;52.254;5.598;2023-01-28T00:49:15;46.69;45.86;47.62;;
66456;Laerm;56833;52.254;5.598;2023-01-28T00:49:25;46.70;45.63;47.75;;
66456;Laerm;56833;52.254;5.598;2023-01-28T00:49:35;46.66;45.27;47.47;;
66456;Laerm;56833;52.254;5.598;2023-01-28T00:49:46;46.67;45.58;47.46;;
66456;Laerm;56833;52.254;5.598;2023-01-28T00:49:56;46.66;45.81;47.58;;
66456;Laerm;56833;52.254;5.598;2023-01-28T00:50:07;46.72;45.67;47.42;;
66456;Laerm;56833;52.254;5.598;2023-01-28T00:50:17;46.71;45.77;47.56;;
66456;Laerm;56833;52.254;5.598;2023-01-28T00:50:30;46.66;45.51;47.63;;
66456;Laerm;56833;52.254;5.598;2023-01-28T00:50:40;46.69;45.80;47.82;;
66456;Laerm;56833;52.254;5.598;2023-01-28T00:50:50;46.71;45.79;47.62;;
66456;Laerm;56833;52.254;5.598;2023-01-28T00:51:01;46.69;45.69;47.86;;
66456;Laerm;56833;52.254;5.598;2023-01-28T00:51:12;46.70;45.59;47.87;;
66456;Laerm;56833;52.254;5.598;2023-01-28T00:51:22;46.72;45.91;47.49;;
66456;Laerm;56833;52.254;5.598;2023-01-28T00:51:33;46.70;45.81;47.69;;
66456;Laerm;56833;52.254;5.598;2023-01-28T00:51:43;46.67;45.63;47.58;;
66456;Laerm;56833;52.254;5.598;2023-01-28T00:51:53;46.68;45.66;47.61;;
66456;Laerm;56833;52.254;5.598;2023-01-28T00:52:04;46.72;45.44;47.77;;
66456;Laerm;56833;52.254;5.598;2023-01-28T00:52:14;46.69;45.73;47.68;;
66456;Laerm;56833;52.254;5.598;2023-01-28T00:52:24;46.69;45.68;47.56;;
66456;Laerm;56833;52.254;5.598;2023-01-28T00:52:37;46.64;45.41;47.71;;
66456;Laerm;56833;52.254;5.598;2023-01-28T00:52:48;46.64;45.48;47.54;;
66456;Laerm;56833;52.254;5.598;2023-01-28T00:52:58;46.64;45.63;47.81;;
66456;Laerm;56833;52.254;5.598;2023-01-28T00:53:08;46.67;45.71;47.76;;
66456;Laerm;56833;52.254;5.598;2023-01-28T00:53:18;46.62;45.70;47.93;;
66456;Laerm;56833;52.254;5.598;2023-01-28T00:53:29;46.64;45.66;47.66;;
66456;Laerm;56833;52.254;5.598;2023-01-28T00:53:39;46.62;45.71;47.64;;
66456;Laerm;56833;52.254;5.598;2023-01-28T00:53:49;46.65;45.74;47.55;;
66456;Laerm;56833;52.254;5.598;2023-01-28T00:54:00;46.66;45.86;47.47;;
66456;Laerm;56833;52.254;5.598;2023-01-28T00:54:11;46.66;45.65;47.71;;
66456;Laerm;56833;52.254;5.598;2023-01-28T00:54:21;46.69;45.91;47.59;;
66456;Laerm;56833;52.254;5.598;2023-01-28T00:54:31;46.68;45.57;47.68;;
66456;Laerm;56833;52.254;5.598;2023-01-28T00:54:42;46.70;45.88;47.74;;
66456;Laerm;56833;52.254;5.598;2023-01-28T00:54:52;46.69;45.66;47.77;;
66456;Laerm;56833;52.254;5.598;2023-01-28T00:55:02;46.69;45.41;48.25;;
66456;Laerm;56833;52.254;5.598;2023-01-28T00:55:13;46.69;45.77;47.72;;
66456;Laerm;56833;52.254;5.598;2023-01-28T00:55:23;46.71;45.56;47.55;;
66456;Laerm;56833;52.254;5.598;2023-01-28T00:55:33;46.69;45.52;48.29;;
66456;Laerm;56833;52.254;5.598;2023-01-28T00:55:43;46.73;45.79;47.66;;
66456;Laerm;56833;52.254;5.598;2023-01-28T00:55:54;46.68;45.60;47.79;;
66456;Laerm;56833;52.254;5.598;2023-01-28T00:56:04;46.68;45.59;47.73;;
66456;Laerm;56833;52.254;5.598;2023-01-28T00:56:16;46.72;45.49;47.57;;
66456;Laerm;56833;52.254;5.598;2023-01-28T00:56:26;46.66;45.64;47.54;;
66456;Laerm;56833;52.254;5.598;2023-01-28T00:56:37;46.67;45.64;47.59;;
66456;Laerm;56833;52.254;5.598;2023-01-28T00:56:47;46.70;45.71;47.58;;
66456;Laerm;56833;52.254;5.598;2023-01-28T00:56:58;46.75;45.67;47.80;;
66456;Laerm;56833;52.254;5.598;2023-01-28T00:57:08;46.71;45.84;47.99;;
66456;Laerm;56833;52.254;5.598;2023-01-28T00:57:18;46.69;45.21;47.74;;
66456;Laerm;56833;52.254;5.598;2023-01-28T00:57:29;46.71;45.67;47.72;;
66456;Laerm;56833;52.254;5.598;2023-01-28T00:57:39;46.72;45.88;47.43;;
66456;Laerm;56833;52.254;5.598;2023-01-28T00:57:49;46.73;45.57;47.59;;
66456;Laerm;56833;52.254;5.598;2023-01-28T00:58:00;46.71;45.86;47.62;;
66456;Laerm;56833;52.254;5.598;2023-01-28T00:58:10;46.71;45.17;47.53;;
66456;Laerm;56833;52.254;5.598;2023-01-28T00:58:20;46.74;45.69;47.66;;
66456;Laerm;56833;52.254;5.598;2023-01-28T00:58:33;46.71;45.66;47.48;;
66456;Laerm;56833;52.254;5.598;2023-01-28T00:58:43;46.77;45.63;47.84;;
66456;Laerm;56833;52.254;5.598;2023-01-28T00:58:54;46.70;45.84;47.59;;
66456;Laerm;56833;52.254;5.598;2023-01-28T00:59:04;46.68;45.78;47.65;;
66456;Laerm;56833;52.254;5.598;2023-01-28T00:59:15;46.66;45.68;47.47;;
66456;Laerm;56833;52.254;5.598;2023-01-28T00:59:25;46.74;45.62;47.87;;
66456;Laerm;56833;52.254;5.598;2023-01-28T00:59:36;46.73;45.74;47.71;;
66456;Laerm;56833;52.254;5.598;2023-01-28T00:59:47;46.74;45.50;47.78;;
66456;Laerm;56833;52.254;5.598;2023-01-28T00:59:57;46.76;45.73;47.62;;
66456;Laerm;56833;52.254;5.598;2023-01-28T01:00:07;46.71;45.79;47.65;;